createdAt,value
2019-01-20T00:00:00.011Z,99.90
2019-01-20T00:02:29.671Z,99.90
2019-01-20T00:04:59.290Z,99.90
2019-01-20T00:07:28.553Z,99.90
2019-01-20T00:10:08.938Z,99.90
2019-01-20T00:12:57.585Z,99.90
2019-01-20T00:15:26.882Z,99.90
2019-01-20T00:17:56.539Z,99.90
2019-01-20T00:20:25.865Z,99.90
2019-01-20T00:22:55.533Z,99.90
2019-01-20T00:25:25.273Z,99.90
2019-01-20T00:27:54.566Z,99.90
2019-01-20T00:30:23.954Z,99.90
2019-01-20T00:32:53.551Z,99.90
2019-01-20T00:35:23.600Z,99.90
2019-01-20T00:37:53.645Z,99.90
2019-01-20T00:40:23.296Z,99.90
2019-01-20T00:42:52.517Z,99.90
2019-01-20T00:45:22.045Z,99.90
2019-01-20T00:47:51.254Z,99.90
2019-01-20T00:50:21.039Z,99.90
2019-01-20T00:52:50.297Z,99.90
2019-01-20T00:55:19.947Z,99.90
2019-01-20T00:57:49.546Z,99.90
2019-01-20T01:00:24.289Z,99.90
2019-01-20T01:02:53.474Z,99.90
2019-01-20T01:05:23.205Z,99.90
2019-01-20T01:07:52.881Z,99.90
2019-01-20T01:10:22.439Z,99.90
2019-01-20T01:12:52.114Z,99.90
2019-01-20T01:15:21.703Z,99.90
2019-01-20T01:17:51.039Z,99.90
2019-01-20T01:20:20.604Z,99.90
2019-01-20T01:22:49.975Z,99.90
2019-01-20T01:25:19.326Z,99.90
2019-01-20T01:27:49.021Z,99.90
2019-01-20T01:30:23.306Z,99.90
2019-01-20T01:32:52.874Z,99.90
2019-01-20T01:35:22.241Z,99.90
2019-01-20T01:37:52.227Z,99.90
2019-01-20T01:40:22.663Z,99.90
2019-01-20T01:42:52.262Z,99.90
2019-01-20T01:45:22.270Z,99.90
2019-01-20T01:47:52.708Z,99.90
2019-01-20T01:50:22.317Z,99.90
2019-01-20T01:52:51.911Z,99.90
2019-01-20T01:55:21.134Z,99.90
2019-01-20T01:57:50.895Z,99.90
2019-01-20T02:00:22.434Z,99.90
2019-01-20T02:02:51.757Z,99.90
2019-01-20T02:05:21.331Z,99.90
2019-01-20T02:07:50.973Z,99.90
2019-01-20T02:10:23.655Z,99.90
2019-01-20T02:12:53.656Z,99.90
2019-01-20T02:15:23.703Z,99.90
2019-01-20T02:17:53.095Z,99.90
2019-01-20T02:20:24.485Z,99.90
2019-01-20T02:22:54.105Z,99.90
2019-01-20T02:25:23.773Z,99.90
2019-01-20T02:27:55.279Z,99.90
2019-01-20T02:30:26.887Z,99.90
2019-01-20T02:32:56.386Z,99.90
2019-01-20T02:35:26.175Z,99.90
2019-01-20T02:37:55.396Z,99.90
2019-01-20T02:40:25.129Z,99.90
2019-01-20T02:42:54.773Z,99.90
2019-01-20T02:45:24.404Z,99.90
2019-01-20T02:47:54.092Z,99.90
2019-01-20T02:50:23.806Z,99.90
2019-01-20T02:52:53.232Z,99.90
2019-01-20T02:55:22.627Z,99.90
2019-01-20T02:57:52.292Z,99.90
2019-01-20T03:00:23.683Z,99.90
2019-01-20T03:02:53.311Z,99.90
2019-01-20T03:05:24.188Z,99.90
2019-01-20T03:07:53.445Z,99.90
2019-01-20T03:10:22.685Z,99.90
2019-01-20T03:12:52.340Z,99.90
2019-01-20T03:15:21.931Z,99.90
2019-01-20T03:17:51.704Z,99.90
2019-01-20T03:20:22.559Z,99.90
2019-01-20T03:22:52.170Z,99.90
2019-01-20T03:25:21.419Z,99.90
2019-01-20T03:27:50.650Z,99.90
2019-01-20T03:30:21.730Z,99.90
2019-01-20T03:32:51.467Z,99.90
2019-01-20T03:35:24.080Z,99.90
2019-01-20T03:37:53.646Z,99.90
2019-01-20T03:40:22.954Z,99.90
2019-01-20T03:42:52.189Z,99.90
2019-01-20T03:45:22.291Z,99.90
2019-01-20T03:47:51.546Z,99.90
2019-01-20T03:50:40.090Z,99.90
2019-01-20T03:53:10.008Z,99.90
2019-01-20T03:55:40.015Z,99.90
2019-01-20T03:58:09.589Z,99.90
2019-01-20T04:00:39.358Z,99.90
2019-01-20T04:03:09.283Z,99.90
2019-01-20T04:05:39.304Z,99.90
2019-01-20T04:08:09.590Z,99.90
2019-01-20T04:10:38.838Z,99.90
2019-01-20T04:13:08.121Z,99.90
2019-01-20T04:15:38.018Z,99.90
2019-01-20T04:18:07.384Z,99.90
2019-01-20T04:20:36.927Z,99.90
2019-01-20T04:23:06.213Z,99.90
2019-01-20T04:25:35.726Z,99.90
2019-01-20T04:28:05.482Z,99.90
2019-01-20T04:30:54.224Z,99.90
2019-01-20T04:33:23.815Z,99.90
2019-01-20T04:35:54.203Z,99.90
2019-01-20T04:38:23.399Z,99.90
2019-01-20T04:40:53.382Z,99.90
2019-01-20T04:43:22.761Z,99.90
2019-01-20T04:45:52.803Z,99.90
2019-01-20T04:48:22.831Z,99.90
2019-01-20T04:50:52.513Z,99.90
2019-01-20T04:53:23.067Z,99.90
2019-01-20T04:55:53.015Z,99.90
2019-01-20T04:58:24.057Z,99.90
2019-01-20T05:00:54.297Z,99.90
2019-01-20T05:03:23.534Z,99.90
2019-01-20T05:05:53.120Z,99.90
2019-01-20T05:08:22.405Z,99.90
2019-01-20T05:10:52.518Z,99.90
2019-01-20T05:13:21.938Z,99.90
2019-01-20T05:15:51.968Z,99.90
2019-01-20T05:18:21.392Z,99.90
2019-01-20T05:20:50.979Z,99.90
2019-01-20T05:23:21.202Z,99.90
2019-01-20T05:25:50.457Z,99.90
2019-01-20T05:28:20.230Z,99.90
2019-01-20T05:30:49.766Z,99.90
2019-01-20T05:33:19.970Z,99.90
2019-01-20T05:35:49.385Z,99.90
2019-01-20T05:38:19.139Z,99.90
2019-01-20T05:40:48.367Z,99.90
2019-01-20T05:43:18.362Z,99.90
2019-01-20T05:46:06.780Z,99.90
2019-01-20T05:48:36.390Z,99.90
2019-01-20T05:51:05.659Z,99.90
2019-01-20T05:53:34.922Z,99.90
2019-01-20T05:56:05.003Z,99.90
2019-01-20T05:58:34.650Z,99.90
2019-01-20T06:01:04.323Z,99.90
2019-01-20T06:03:34.130Z,99.90
2019-01-20T06:06:03.398Z,99.90
2019-01-20T06:08:32.646Z,99.90
2019-01-20T06:11:01.927Z,99.90
2019-01-20T06:13:31.927Z,99.90
2019-01-20T06:16:01.597Z,99.90
2019-01-20T06:18:31.192Z,99.90
2019-01-20T06:21:00.442Z,99.90
2019-01-20T06:23:30.206Z,99.90
2019-01-20T06:25:59.493Z,99.90
2019-01-20T06:28:28.803Z,99.90
2019-01-20T06:30:58.723Z,99.90
2019-01-20T06:33:28.024Z,99.90
2019-01-20T06:36:16.764Z,99.90
2019-01-20T06:38:46.402Z,99.90
2019-01-20T06:41:15.790Z,99.90
2019-01-20T06:43:45.906Z,99.90
2019-01-20T06:46:15.131Z,99.90
2019-01-20T06:48:45.093Z,99.90
2019-01-20T06:51:33.860Z,99.90
2019-01-20T06:54:03.450Z,99.90
2019-01-20T06:56:32.868Z,99.90
2019-01-20T06:59:02.820Z,99.90
2019-01-20T07:01:32.105Z,99.90
2019-01-20T07:04:01.687Z,99.90
2019-01-20T07:06:31.320Z,99.90
2019-01-20T07:09:01.107Z,99.90
2019-01-20T07:11:30.347Z,99.90
2019-01-20T07:14:19.265Z,99.90
2019-01-20T07:16:48.845Z,99.90
2019-01-20T07:19:19.296Z,99.90
2019-01-20T07:21:48.682Z,99.90
2019-01-20T07:24:17.986Z,99.90
2019-01-20T07:26:47.573Z,99.90
2019-01-20T07:29:17.182Z,99.90
2019-01-20T07:31:46.844Z,99.90
2019-01-20T07:34:17.570Z,99.90
2019-01-20T07:36:47.104Z,99.90
2019-01-20T07:39:16.715Z,99.90
2019-01-20T07:41:45.963Z,99.90
2019-01-20T07:44:15.362Z,99.90
2019-01-20T07:46:44.611Z,99.90
2019-01-20T07:49:13.978Z,99.90
2019-01-20T07:51:43.981Z,99.90
2019-01-20T07:54:14.015Z,99.90
2019-01-20T07:56:43.424Z,99.90
2019-01-20T07:59:13.374Z,99.90
2019-01-20T08:01:42.952Z,99.90
2019-01-20T08:04:12.639Z,99.90
2019-01-20T08:06:41.855Z,99.90
2019-01-20T08:09:11.129Z,99.90
2019-01-20T08:11:40.785Z,99.90
2019-01-20T08:14:10.578Z,99.90
2019-01-20T08:16:40.312Z,99.90
2019-01-20T08:19:09.575Z,99.90
2019-01-20T08:21:39.711Z,99.90
2019-01-20T08:24:28.144Z,99.90
2019-01-20T08:26:57.826Z,99.90
2019-01-20T08:29:27.797Z,99.90
2019-01-20T08:31:57.784Z,99.90
2019-01-20T08:34:27.059Z,99.90
2019-01-20T08:36:56.329Z,99.90
2019-01-20T08:39:25.818Z,99.90
2019-01-20T08:41:55.604Z,99.90
2019-01-20T08:44:29.938Z,99.90
2019-01-20T08:47:37.949Z,99.90
2019-01-20T08:50:14.757Z,99.90
2019-01-20T08:52:44.113Z,99.90
2019-01-20T08:55:14.234Z,99.90
2019-01-20T08:57:43.906Z,99.90
2019-01-20T09:00:17.382Z,99.90
2019-01-20T09:02:46.770Z,99.90
2019-01-20T09:05:16.605Z,99.90
2019-01-20T09:07:46.033Z,99.90
2019-01-20T09:10:24.199Z,99.90
2019-01-20T09:12:53.907Z,99.90
2019-01-20T09:15:23.933Z,99.90
2019-01-20T09:17:53.612Z,99.90
2019-01-20T09:20:23.167Z,99.90
2019-01-20T09:22:52.934Z,99.90
2019-01-20T09:25:22.319Z,99.90
2019-01-20T09:27:51.563Z,99.90
2019-01-20T09:30:21.569Z,99.90
2019-01-20T09:32:51.648Z,99.90
2019-01-20T09:35:21.439Z,99.90
2019-01-20T09:37:50.726Z,99.90
2019-01-20T09:40:20.778Z,99.90
2019-01-20T09:42:50.155Z,99.90
2019-01-20T09:45:26.883Z,99.90
2019-01-20T09:47:56.319Z,99.90
2019-01-20T09:50:26.037Z,99.90
2019-01-20T09:52:55.419Z,99.90
2019-01-20T09:55:24.670Z,99.90
2019-01-20T09:57:53.925Z,99.90
2019-01-20T10:00:25.010Z,99.90
2019-01-20T10:02:55.199Z,99.90
2019-01-20T10:05:26.447Z,99.90
2019-01-20T10:07:56.402Z,99.90
2019-01-20T10:10:30.039Z,99.90
2019-01-20T10:13:18.804Z,99.90
2019-01-20T10:15:52.261Z,99.90
2019-01-20T10:18:24.902Z,99.90
2019-01-20T10:20:57.047Z,99.90
2019-01-20T10:23:27.932Z,99.90
2019-01-20T10:25:57.398Z,99.90
2019-01-20T10:28:28.021Z,99.90
2019-01-20T10:30:57.379Z,99.90
2019-01-20T10:33:26.627Z,99.90
2019-01-20T10:36:03.553Z,99.90
2019-01-20T10:38:36.977Z,99.90
2019-01-20T10:41:04.167Z,99.90
2019-01-20T10:43:34.104Z,99.90
2019-01-20T10:46:03.500Z,99.90
2019-01-20T10:48:33.830Z,99.90
2019-01-20T10:51:03.149Z,99.90
2019-01-20T10:53:32.399Z,99.90
2019-01-20T10:56:02.207Z,99.90
2019-01-20T10:58:31.462Z,99.90
2019-01-20T11:01:23.141Z,99.90
2019-01-20T11:03:53.186Z,99.90
2019-01-20T11:06:24.669Z,99.90
2019-01-20T11:08:55.062Z,99.90
2019-01-20T11:11:24.780Z,99.90
2019-01-20T11:13:54.036Z,99.90
2019-01-20T11:16:23.769Z,99.90
2019-01-20T11:18:53.791Z,99.90
2019-01-20T11:21:23.074Z,99.90
2019-01-20T11:23:52.943Z,99.90
2019-01-20T11:26:22.456Z,99.90
2019-01-20T11:28:54.325Z,99.90
2019-01-20T11:31:23.939Z,99.90
2019-01-20T11:33:53.315Z,99.90
2019-01-20T11:36:23.161Z,99.90
2019-01-20T11:38:52.713Z,99.90
2019-01-20T11:41:22.388Z,98.80
2019-01-20T11:43:51.982Z,97.80
2019-01-20T11:46:40.379Z,98.10
2019-01-20T11:49:10.100Z,98.60
2019-01-20T11:51:39.723Z,98.90
2019-01-20T11:54:09.070Z,99.10
2019-01-20T11:56:38.727Z,99.50
2019-01-20T11:59:08.556Z,99.90
2019-01-20T12:01:38.598Z,99.90
2019-01-20T12:04:08.143Z,99.90
2019-01-20T12:06:37.630Z,99.90
2019-01-20T12:09:09.874Z,99.70
2019-01-20T12:11:39.810Z,99.10
2019-01-20T12:14:09.091Z,98.50
2019-01-20T12:16:38.907Z,97.20
2019-01-20T12:19:08.884Z,96.30
2019-01-20T12:21:38.548Z,96.00
2019-01-20T12:24:07.824Z,95.00
2019-01-20T12:26:37.534Z,93.60
2019-01-20T12:29:07.114Z,92.10
2019-01-20T12:31:37.056Z,91.40
2019-01-20T12:34:06.795Z,89.50
2019-01-20T12:36:36.408Z,88.60
2019-01-20T12:39:08.730Z,87.80
2019-01-20T12:41:38.235Z,83.80
2019-01-20T12:44:08.377Z,79.10
2019-01-20T12:46:38.149Z,74.40
2019-01-20T12:49:07.453Z,68.80
2019-01-20T12:51:36.746Z,63.60
2019-01-20T12:54:06.094Z,62.20
2019-01-20T12:56:35.697Z,58.00
2019-01-20T12:59:05.235Z,54.50
2019-01-20T13:01:34.535Z,51.70
2019-01-20T13:04:04.159Z,52.60
2019-01-20T13:06:34.213Z,54.80
2019-01-20T13:09:05.217Z,54.50
2019-01-20T13:11:34.904Z,51.50
2019-01-20T13:14:04.431Z,49.10
2019-01-20T13:16:34.187Z,48.60
2019-01-20T13:19:03.921Z,46.30
2019-01-20T13:21:33.558Z,45.30
2019-01-20T13:24:03.322Z,44.80
2019-01-20T13:26:32.605Z,43.30
2019-01-20T13:29:02.163Z,40.90
2019-01-20T13:31:31.366Z,39.70
2019-01-20T13:34:00.540Z,40.70
2019-01-20T13:36:30.537Z,41.30
2019-01-20T13:39:00.471Z,40.30
2019-01-20T13:41:33.863Z,39.20
2019-01-20T13:44:03.442Z,38.90
2019-01-20T13:46:33.035Z,37.70
2019-01-20T13:49:02.883Z,37.60
2019-01-20T13:51:32.548Z,37.60
2019-01-20T13:54:02.178Z,37.40
2019-01-20T13:56:31.895Z,37.10
2019-01-20T13:59:01.441Z,36.90
2019-01-20T14:01:31.052Z,36.80
2019-01-20T14:04:00.650Z,36.50
2019-01-20T14:06:30.032Z,36.60
2019-01-20T14:08:59.444Z,36.70
2019-01-20T14:11:28.654Z,36.80
2019-01-20T14:13:58.133Z,37.00
2019-01-20T14:16:27.374Z,38.10
2019-01-20T14:18:57.729Z,39.60
2019-01-20T14:21:26.989Z,41.40
2019-01-20T14:23:56.371Z,42.90
2019-01-20T14:26:26.914Z,45.20
2019-01-20T14:28:56.165Z,48.60
2019-01-20T14:31:25.740Z,51.20
2019-01-20T14:33:55.718Z,52.90
2019-01-20T14:36:24.950Z,54.30
2019-01-20T14:38:54.471Z,55.30
2019-01-20T14:41:24.633Z,56.20
2019-01-20T14:43:53.975Z,56.80
2019-01-20T14:46:23.590Z,57.90
2019-01-20T14:48:53.824Z,59.50
2019-01-20T14:51:23.501Z,61.20
2019-01-20T14:53:54.886Z,62.10
2019-01-20T14:56:24.126Z,64.10
2019-01-20T14:58:53.749Z,66.70
2019-01-20T15:01:23.387Z,69.80
2019-01-20T15:03:53.940Z,73.00
2019-01-20T15:06:23.187Z,77.10
2019-01-20T15:08:52.767Z,81.70
2019-01-20T15:11:22.343Z,86.90
2019-01-20T15:13:51.958Z,91.00
2019-01-20T15:16:21.209Z,92.80
2019-01-20T15:18:50.471Z,94.90
2019-01-20T15:21:22.660Z,97.00
2019-01-20T15:23:52.365Z,98.70
2019-01-20T15:26:21.617Z,99.90
2019-01-20T15:28:51.238Z,99.90
2019-01-20T15:31:20.677Z,99.90
2019-01-20T15:33:50.275Z,99.90
2019-01-20T15:36:19.936Z,99.90
2019-01-20T15:38:49.650Z,99.90
2019-01-20T15:41:19.513Z,99.90
2019-01-20T15:43:48.860Z,99.90
2019-01-20T15:46:18.075Z,99.90
2019-01-20T15:48:48.126Z,99.90
2019-01-20T15:51:17.395Z,99.90
2019-01-20T15:53:46.649Z,99.90
2019-01-20T15:56:16.034Z,99.90
2019-01-20T15:58:46.058Z,99.90
2019-01-20T16:01:15.919Z,99.90
2019-01-20T16:03:45.270Z,99.90
2019-01-20T16:06:14.650Z,99.90
2019-01-20T16:08:44.265Z,99.90
2019-01-20T16:11:13.896Z,99.90
2019-01-20T16:13:43.143Z,99.90
2019-01-20T16:16:13.551Z,99.90
2019-01-20T16:18:42.787Z,99.90
2019-01-20T16:21:12.145Z,99.90
2019-01-20T16:23:41.993Z,99.90
2019-01-20T16:26:11.600Z,99.90
2019-01-20T16:28:41.330Z,99.90
2019-01-20T16:31:10.726Z,99.90
2019-01-20T16:33:39.949Z,99.90
2019-01-20T16:36:09.925Z,99.90
2019-01-20T16:38:39.355Z,99.90
2019-01-20T16:41:09.076Z,99.90
2019-01-20T16:43:39.372Z,99.90
2019-01-20T16:46:09.470Z,99.90
2019-01-20T16:48:38.942Z,99.90
2019-01-20T16:51:27.333Z,99.90
2019-01-20T16:53:56.737Z,99.90
2019-01-20T16:56:26.318Z,99.90
2019-01-20T16:58:56.079Z,99.90
2019-01-20T17:01:25.813Z,99.90
2019-01-20T17:03:55.665Z,99.90
2019-01-20T17:06:25.690Z,99.90
2019-01-20T17:08:55.224Z,99.90
2019-01-20T17:11:25.632Z,99.90
2019-01-20T17:13:55.267Z,99.90
2019-01-20T17:16:24.524Z,99.90
2019-01-20T17:18:54.143Z,99.90
2019-01-20T17:21:23.655Z,99.90
2019-01-20T17:23:53.206Z,99.90
2019-01-20T17:26:22.603Z,99.90
2019-01-20T17:28:51.847Z,99.90
2019-01-20T17:31:23.026Z,99.90
2019-01-20T17:33:52.451Z,99.90
2019-01-20T17:36:21.770Z,99.90
2019-01-20T17:38:53.325Z,99.90
2019-01-20T17:41:22.562Z,99.90
2019-01-20T17:43:52.364Z,99.90
2019-01-20T17:46:22.206Z,99.90
2019-01-20T17:49:10.992Z,99.90
2019-01-20T17:51:43.312Z,99.90
2019-01-20T17:54:12.706Z,99.90
2019-01-20T17:56:42.703Z,99.90
2019-01-20T17:59:12.351Z,99.90
2019-01-20T18:01:41.680Z,99.90
2019-01-20T18:04:11.077Z,99.90
2019-01-20T18:06:40.744Z,99.90
2019-01-20T18:09:11.394Z,99.90
2019-01-20T18:11:42.989Z,99.90
2019-01-20T18:14:12.328Z,99.90
2019-01-20T18:16:41.627Z,99.90
2019-01-20T18:19:11.408Z,99.90
2019-01-20T18:21:40.649Z,99.90
2019-01-20T18:24:09.892Z,99.90
2019-01-20T18:26:58.433Z,99.90
2019-01-20T18:29:27.869Z,99.90
2019-01-20T18:31:57.187Z,99.90
2019-01-20T18:34:45.906Z,99.90
2019-01-20T18:37:15.510Z,99.90
2019-01-20T18:39:44.754Z,99.90
2019-01-20T18:42:14.779Z,99.90
2019-01-20T18:44:43.985Z,99.90
2019-01-20T18:47:13.703Z,99.90
2019-01-20T18:49:43.153Z,99.90
2019-01-20T18:52:15.787Z,99.90
2019-01-20T18:54:45.205Z,99.90
2019-01-20T18:57:15.203Z,99.90
2019-01-20T18:59:45.802Z,99.90
2019-01-20T19:02:34.145Z,99.90
2019-01-20T19:05:03.734Z,99.90
2019-01-20T19:07:33.585Z,99.90
2019-01-20T19:10:03.292Z,99.90
2019-01-20T19:12:32.543Z,99.90
2019-01-20T19:15:02.347Z,99.90
2019-01-20T19:17:31.613Z,99.90
2019-01-20T19:20:00.806Z,99.90
2019-01-20T19:22:50.095Z,99.90
2019-01-20T19:25:38.992Z,99.90
2019-01-20T19:28:08.717Z,99.90
2019-01-20T19:30:38.263Z,99.90
2019-01-20T19:33:08.027Z,99.90
2019-01-20T19:35:37.878Z,99.90
2019-01-20T19:38:07.677Z,99.90
2019-01-20T19:40:37.345Z,99.90
2019-01-20T19:43:06.787Z,99.90
2019-01-20T19:45:36.460Z,99.90
2019-01-20T19:48:25.208Z,99.90
2019-01-20T19:50:54.852Z,99.90
2019-01-20T19:53:24.482Z,99.90
2019-01-20T19:55:53.914Z,99.90
2019-01-20T19:58:23.187Z,99.90
2019-01-20T20:00:53.408Z,99.90
2019-01-20T20:03:22.835Z,99.90
2019-01-20T20:05:52.512Z,99.90
2019-01-20T20:08:22.625Z,99.90
2019-01-20T20:10:52.614Z,99.90
2019-01-20T20:13:22.284Z,99.90
2019-01-20T20:15:52.206Z,99.90
2019-01-20T20:18:21.511Z,99.90
2019-01-20T20:20:50.794Z,99.90
2019-01-20T20:23:20.350Z,99.90
2019-01-20T20:25:49.626Z,99.90
2019-01-20T20:28:19.288Z,99.90
2019-01-20T20:30:48.934Z,99.90
2019-01-20T20:33:37.451Z,99.90
2019-01-20T20:36:06.819Z,99.90
2019-01-20T20:38:55.537Z,99.90
2019-01-20T20:41:25.433Z,99.90
2019-01-20T20:43:55.482Z,99.90
2019-01-20T20:46:30.569Z,99.90
2019-01-20T20:48:56.348Z,99.90
2019-01-20T20:51:25.986Z,99.90
2019-01-20T20:53:55.655Z,99.90
2019-01-20T20:56:25.284Z,99.90
2019-01-20T20:58:54.634Z,99.90
2019-01-20T21:01:24.277Z,99.90
2019-01-20T21:03:53.674Z,99.90
2019-01-20T21:06:22.978Z,99.90
2019-01-20T21:08:52.391Z,99.90
2019-01-20T21:11:22.069Z,99.90
2019-01-20T21:13:51.711Z,99.90
2019-01-20T21:16:21.434Z,99.90
2019-01-20T21:18:51.471Z,99.90
2019-01-20T21:21:21.084Z,99.90
2019-01-20T21:23:50.933Z,99.90
2019-01-20T21:26:20.184Z,99.90
2019-01-20T21:28:49.959Z,99.90
2019-01-20T21:31:19.241Z,99.90
2019-01-20T21:33:48.488Z,99.90
2019-01-20T21:36:18.225Z,99.90
2019-01-20T21:38:47.476Z,99.90
2019-01-20T21:41:17.188Z,99.90
2019-01-20T21:43:46.816Z,99.90
2019-01-20T21:46:16.035Z,99.90
2019-01-20T21:48:46.399Z,99.90
2019-01-20T21:51:15.777Z,99.90
2019-01-20T21:54:04.161Z,99.90
2019-01-20T21:56:33.410Z,99.90
2019-01-20T21:59:03.468Z,99.90
2019-01-20T22:01:33.261Z,99.90
2019-01-20T22:04:03.274Z,99.90
2019-01-20T22:06:51.792Z,99.90
2019-01-20T22:09:21.371Z,99.90
2019-01-20T22:11:51.425Z,99.90
2019-01-20T22:14:21.024Z,99.90
2019-01-20T22:16:52.817Z,99.90
2019-01-20T22:19:21.917Z,99.90
2019-01-20T22:21:52.087Z,99.90
2019-01-20T22:24:21.817Z,99.90
2019-01-20T22:26:51.770Z,99.90
2019-01-20T22:29:21.814Z,99.90
2019-01-20T22:31:51.433Z,99.90
2019-01-20T22:34:21.670Z,99.90
2019-01-20T22:36:51.347Z,99.90
2019-01-20T22:39:21.785Z,99.90
2019-01-20T22:41:51.240Z,99.90
2019-01-20T22:44:20.824Z,99.90
2019-01-20T22:46:50.219Z,99.90
2019-01-20T22:49:19.490Z,99.90
2019-01-20T22:51:48.884Z,99.90
2019-01-20T22:54:18.243Z,99.90
2019-01-20T22:56:47.532Z,99.90
2019-01-20T22:59:17.524Z,99.90
2019-01-20T23:01:46.762Z,99.90
2019-01-20T23:04:16.370Z,99.90
2019-01-20T23:06:46.435Z,99.90
2019-01-20T23:09:16.029Z,99.90
2019-01-20T23:11:46.163Z,99.90
2019-01-20T23:14:15.815Z,99.90
2019-01-20T23:16:45.871Z,99.90
2019-01-20T23:19:15.837Z,99.90
2019-01-20T23:22:04.397Z,99.90
2019-01-20T23:24:52.816Z,99.90
2019-01-20T23:27:22.515Z,99.90
2019-01-20T23:29:52.214Z,99.90
2019-01-20T23:32:40.815Z,99.90
2019-01-20T23:35:10.853Z,99.90
2019-01-20T23:37:40.387Z,99.90
2019-01-20T23:40:10.052Z,99.90
2019-01-20T23:42:39.292Z,99.90
2019-01-20T23:45:09.694Z,99.90
2019-01-20T23:47:39.272Z,99.90
2019-01-20T23:50:09.685Z,99.90
2019-01-20T23:52:39.310Z,99.90
2019-01-20T23:55:27.922Z,99.90
2019-01-20T23:57:57.565Z,99.90
